EGKB/BQH METAR and TAF weather

Enter ICAO airport designator
Station Type Date Time Source
EGKB METAR 2020/01/17 22:20 UTC NOAA

EGKB 172220Z 23007KT CAVOK 02/01 Q1019


Station Type Date Time Source
EGKB Decoded METAR 2020/01/17 22:20 UTC NOAA

Biggin Hill , United Kingdom (EGKB) 51-19N 000-02E
Jan 17, 2020 - 05:20 PM EST / 2020.01.17 2220 UTC
Wind: from the SW (230 degrees) at 8 MPH (7 KT):0
Visibility: greater than 7 mile(s):0
Temperature: 35 F (2 C)
Windchill: 28 F (-2 C):1
Dew Point: 33 F (1 C)
Relative Humidity: 93%
Pressure (altimeter): 30.09 in. Hg (1019 hPa)
ob: EGKB 172220Z 23007KT CAVOK 02/01 Q1019
cycle: 22

Station Type Date Time Source
EGKB TAF 2019/07/13 18:09 UTC NOAA

TAF EGKB 131706Z 1318/1422 03009KT 9999 SCT040 PROB30
TEMPO 1318/1320 8000 -SHRA

Example: see airport list